Time;durP1;ratioP1;P1;durP2;ratioP2;P2;SDS_P1;SDS_P2;PMS_P1;PMS_P2;Temp;Humidity;BMP_temperature;BMP_pressure;BME280_temperature;BME280_humidity;BME280_pressure;Samples;Min_cycle;Max_cycle;Signal;HPM_P1;HPM_P2
2021/08/22 00:01:29;;;;;;;3.47;1.55;;;;;;;21.29;72.47;101428.69;5078596;28;20033;-65
2021/08/22 00:03:54;;;;;;;3.10;1.45;;;;;;;21.29;72.15;101436.69;5073365;28;20031;-65
2021/08/22 00:06:20;;;;;;;3.78;1.77;;;;;;;21.28;72.49;101441.22;5109441;28;20024;-65
2021/08/22 00:08:45;;;;;;;5.38;1.60;;;;;;;21.29;71.89;101439.38;5093188;28;20119;-65
2021/08/22 00:11:12;;;;;;;4.00;1.58;;;;;;;21.29;72.12;101436.69;5096035;28;20112;-65
2021/08/22 00:13:38;;;;;;;5.82;1.33;;;;;;;21.27;72.12;101442.22;5109126;28;20031;-65
2021/08/22 00:16:04;;;;;;;2.72;1.42;;;;;;;21.27;72.17;101444.91;5103073;28;20043;-65
2021/08/22 00:18:30;;;;;;;3.38;1.52;;;;;;;21.27;71.98;101447.56;5100184;28;20058;-65
2021/08/22 00:20:56;;;;;;;3.10;1.52;;;;;;;21.27;71.87;101452.09;5076290;28;20447;-65
2021/08/22 00:23:21;;;;;;;6.78;2.00;;;;;;;21.26;71.70;101458.44;5100275;28;20043;-65
2021/08/22 00:25:47;;;;;;;5.30;1.50;;;;;;;21.25;72.03;101449.63;5089260;28;20020;-65
2021/08/22 00:28:12;;;;;;;3.17;1.60;;;;;;;21.25;71.81;101464.81;5108959;28;20387;-65
2021/08/22 00:30:38;;;;;;;6.03;2.10;;;;;;;21.25;71.65;101457.63;5095587;28;20039;-65
2021/08/22 00:33:03;;;;;;;3.33;1.55;;;;;;;21.24;71.96;101463.94;5093267;28;20027;-65
2021/08/22 00:35:29;;;;;;;4.38;1.45;;;;;;;21.23;72.01;101465.78;5109296;28;20047;-65
2021/08/22 00:37:56;;;;;;;5.25;1.70;;;;;;;21.23;71.74;101464.97;5094386;28;20043;-65
2021/08/22 00:40:21;;;;;;;3.97;1.70;;;;;;;21.23;71.65;101478.31;5081156;28;20028;-65
2021/08/22 00:42:47;;;;;;;2.80;1.40;;;;;;;21.23;71.47;101471.13;5103676;28;20036;-65
2021/08/22 00:45:14;;;;;;;3.65;1.52;;;;;;;21.23;71.99;101478.31;5101759;28;20036;-65
2021/08/22 00:47:40;;;;;;;2.35;1.38;;;;;;;21.23;71.94;101473.78;5056732;28;20036;-65
2021/08/22 00:50:06;;;;;;;3.92;1.60;;;;;;;21.22;71.59;101485.47;5103043;28;20148;-65
2021/08/22 00:52:33;;;;;;;2.13;1.40;;;;;;;21.23;71.63;101484.47;5109308;28;20054;-65
2021/08/22 00:55:02;;;;;;;2.10;1.23;;;;;;;21.22;71.71;101484.66;5094840;28;20036;-65
2021/08/22 00:57:28;;;;;;;2.75;1.70;;;;;;;21.22;71.63;101487.31;5076075;28;20035;-65
2021/08/22 00:59:53;;;;;;;2.70;1.30;;;;;;;21.21;71.61;101491.00;5108827;28;20032;-65
2021/08/22 01:02:27;;;;;;;3.03;1.35;;;;;;;21.20;71.63;101494.69;5092172;28;20478;-65
2021/08/22 01:05:21;;;;;;;3.58;1.40;;;;;;;21.16;71.44;101498.78;5108448;28;20028;-65
2021/08/22 01:08:00;;;;;;;2.80;1.30;;;;;;;21.17;71.40;101498.56;5095732;28;20501;-65
2021/08/22 01:10:26;;;;;;;4.10;1.70;;;;;;;21.20;71.39;101506.19;5093822;28;20032;-65
2021/08/22 01:12:59;;;;;;;2.22;1.30;;;;;;;21.19;71.29;101507.22;5108335;28;20043;-65
2021/08/22 01:15:26;;;;;;;2.92;1.70;;;;;;;21.20;71.65;101500.84;5094947;28;20042;-65
2021/08/22 01:17:54;;;;;;;3.08;1.55;;;;;;;21.19;71.55;101514.41;5102043;28;20032;-65
2021/08/22 01:20:44;;;;;;;2.53;1.42;;;;;;;21.16;71.27;101512.13;5100782;28;20035;-65
2021/08/22 01:23:11;;;;;;;3.08;1.60;;;;;;;21.19;71.43;101512.56;5072200;28;20039;-64
2021/08/22 01:25:39;;;;;;;4.00;1.65;;;;;;;21.20;70.99;101516.03;5101494;28;20138;-65
2021/08/22 01:28:08;;;;;;;3.00;1.35;;;;;;;21.18;71.11;101518.91;5090067;28;20024;-65
2021/08/22 01:30:40;;;;;;;3.53;1.52;;;;;;;21.17;71.05;101522.59;5092104;28;20051;-65
2021/08/22 01:33:10;;;;;;;3.03;1.40;;;;;;;21.18;71.02;101523.41;5102219;28;20479;-65
2021/08/22 01:35:37;;;;;;;3.17;1.40;;;;;;;21.18;71.26;101523.41;5112554;28;20050;-65
2021/08/22 01:38:04;;;;;;;1.73;1.20;;;;;;;21.18;71.35;101534.09;5108795;28;20042;-65
2021/08/22 01:40:31;;;;;;;2.33;1.38;;;;;;;21.18;71.23;101534.09;5096610;28;20036;-65
2021/08/22 01:42:58;;;;;;;3.55;1.30;;;;;;;21.18;71.25;101536.75;5112424;28;20038;-65
2021/08/22 01:45:24;;;;;;;2.72;1.67;;;;;;;21.17;71.20;101535.09;5097376;28;20019;-65
2021/08/22 01:47:50;;;;;;;1.80;1.15;;;;;;;21.17;70.92;101533.25;5092841;28;20042;-64
2021/08/22 01:50:18;;;;;;;2.33;1.30;;;;;;;21.17;71.12;101535.09;5096986;28;20031;-65
2021/08/22 01:52:43;;;;;;;3.72;1.55;;;;;;;21.17;71.11;101540.44;5101324;28;20032;-65
2021/08/22 01:55:09;;;;;;;4.22;1.63;;;;;;;21.17;71.02;101535.09;5072410;28;20035;-65
2021/08/22 01:57:41;;;;;;;3.00;1.30;;;;;;;21.15;70.88;101532.63;5065438;28;20032;-65
2021/08/22 02:00:08;;;;;;;3.63;1.60;;;;;;;21.17;71.06;101532.44;5099629;28;20092;-65
2021/08/22 02:02:33;;;;;;;2.28;1.40;;;;;;;21.16;71.06;101538.78;5077716;28;20058;-65
2021/08/22 02:05:02;;;;;;;2.70;1.48;;;;;;;21.17;71.24;101543.13;5104330;28;20522;-65
2021/08/22 02:07:32;;;;;;;2.15;1.50;;;;;;;21.15;70.84;101550.47;5110713;28;20015;-65
2021/08/22 02:10:36;;;;;;;2.10;1.25;;;;;;;21.11;71.15;101549.19;5111261;28;20032;-65
2021/08/22 02:13:03;;;;;;;1.90;1.20;;;;;;;21.15;71.23;101561.97;5016879;28;20042;-64
2021/08/22 02:15:43;;;;;;;2.95;1.70;;;;;;;21.14;71.21;101564.81;5081807;28;20076;-64
2021/08/22 02:18:15;;;;;;;2.20;1.10;;;;;;;21.14;70.79;101560.28;5102228;28;20118;-65
2021/08/22 02:20:43;;;;;;;2.10;1.23;;;;;;;21.15;71.08;101567.31;5104861;28;20032;-65
2021/08/22 02:23:10;;;;;;;2.65;1.30;;;;;;;21.15;71.21;101569.16;5076100;28;20127;-65
2021/08/22 02:25:36;;;;;;;2.72;1.33;;;;;;;21.15;71.19;101569.16;5091031;28;20039;-65
2021/08/22 02:28:03;;;;;;;1.95;1.33;;;;;;;21.16;71.13;101570.81;5098320;28;20062;-65
2021/08/22 02:30:36;;;;;;;3.17;1.92;;;;;;;21.14;71.28;101570.16;5093057;28;20032;-65
2021/08/22 02:33:06;;;;;;;2.42;1.30;;;;;;;21.14;71.19;101570.97;5086847;28;20031;-65
2021/08/22 02:35:32;;;;;;;2.75;1.60;;;;;;;21.14;70.93;101575.47;5083743;28;20048;-65
2021/08/22 02:37:57;;;;;;;2.70;1.27;;;;;;;21.14;70.80;101581.66;5088361;28;20024;-65
2021/08/22 02:40:23;;;;;;;3.25;1.25;;;;;;;21.14;71.05;101576.31;5099193;28;20036;-65
2021/08/22 02:42:49;;;;;;;2.22;1.38;;;;;;;21.14;71.17;101580.81;5103620;28;20061;-65
2021/08/22 02:45:15;;;;;;;2.75;1.45;;;;;;;21.14;71.04;101576.31;5097805;28;20024;-65
2021/08/22 02:47:41;;;;;;;3.00;1.40;;;;;;;21.13;70.89;101574.66;5096705;28;20100;-65
2021/08/22 02:50:06;;;;;;;3.20;1.40;;;;;;;21.14;70.64;101580.81;5104745;28;20039;-65
2021/08/22 02:52:32;;;;;;;3.63;1.60;;;;;;;21.14;70.54;101586.16;5072240;28;20533;-64
2021/08/22 02:54:57;;;;;;;3.15;1.42;;;;;;;21.13;70.66;101590.66;5092012;28;20089;-65
2021/08/22 02:57:23;;;;;;;1.80;1.40;;;;;;;21.13;70.68;101590.66;5083371;28;20162;-65
2021/08/22 02:59:48;;;;;;;2.47;1.45;;;;;;;21.13;70.70;101589.84;5086415;28;20082;-65
2021/08/22 03:02:14;;;;;;;3.03;1.60;;;;;;;21.13;70.67;101590.66;5093547;28;20040;-65
2021/08/22 03:04:39;;;;;;;1.92;1.33;;;;;;;21.12;70.61;101589.00;5084947;28;20039;-65
2021/08/22 03:07:05;;;;;;;3.22;1.50;;;;;;;21.13;70.73;101595.19;5087517;28;20141;-65
2021/08/22 03:09:30;;;;;;;2.33;1.40;;;;;;;21.12;70.61;101593.53;5086018;28;20024;-65
2021/08/22 03:11:56;;;;;;;1.70;1.38;;;;;;;21.12;70.78;101597.00;5088369;28;20021;-65
2021/08/22 03:14:22;;;;;;;3.10;1.70;;;;;;;21.12;70.95;101601.53;5087253;28;20035;-65
2021/08/22 03:16:47;;;;;;;2.08;1.30;;;;;;;21.12;70.50;101601.53;5085906;28;20040;-65
2021/08/22 03:19:13;;;;;;;2.20;1.40;;;;;;;21.12;70.69;101604.19;5084227;28;20039;-65
2021/08/22 03:21:41;;;;;;;3.58;1.50;;;;;;;21.12;70.46;101614.88;5086192;28;20082;-65
2021/08/22 03:24:08;;;;;;;3.47;1.52;;;;;;;21.11;70.55;101613.22;5079221;28;20039;-65
2021/08/22 03:26:33;;;;;;;2.67;1.70;;;;;;;21.11;70.86;101618.56;5085840;28;20028;-65
2021/08/22 03:28:59;;;;;;;2.55;1.60;;;;;;;21.10;70.41;101619.56;5088255;28;20418;-65
2021/08/22 03:31:24;;;;;;;2.30;1.40;;;;;;;21.10;70.72;101616.91;5084875;28;20024;-65
2021/08/22 03:33:50;;;;;;;2.97;1.58;;;;;;;21.10;70.45;101617.72;5085424;28;20435;-65
2021/08/22 03:36:16;;;;;;;2.28;1.35;;;;;;;21.10;70.29;101614.22;5098978;28;20062;-65
2021/08/22 03:38:41;;;;;;;2.42;1.52;;;;;;;21.10;70.67;101612.38;5096469;28;20123;-65
2021/08/22 03:41:07;;;;;;;2.17;1.52;;;;;;;21.10;70.71;101614.22;5098395;28;20496;-65
2021/08/22 03:43:32;;;;;;;3.55;1.40;;;;;;;21.09;70.58;101616.06;5103385;28;20390;-65
2021/08/22 03:45:58;;;;;;;2.83;1.70;;;;;;;21.09;70.62;101615.25;5058797;28;20075;-65
2021/08/22 03:48:23;;;;;;;2.63;1.67;;;;;;;21.08;70.38;101609.09;5091835;28;20104;-65
2021/08/22 03:50:49;;;;;;;2.67;1.60;;;;;;;21.09;70.49;101609.91;5108993;28;20044;-65
2021/08/22 03:53:14;;;;;;;3.20;1.52;;;;;;;21.08;70.26;101614.41;5088130;28;20032;-65
2021/08/22 03:55:39;;;;;;;3.22;1.60;;;;;;;21.09;70.38;101615.25;5079942;28;20056;-65
2021/08/22 03:58:05;;;;;;;3.08;1.48;;;;;;;21.08;70.56;101617.09;5089984;28;20047;-65
2021/08/22 04:00:30;;;;;;;3.00;1.50;;;;;;;21.09;70.09;101620.59;5091396;28;20044;-65
2021/08/22 04:02:56;;;;;;;2.88;1.33;;;;;;;21.08;70.41;101624.25;5088456;28;20044;-65
2021/08/22 04:05:21;;;;;;;2.05;1.33;;;;;;;21.07;70.28;101620.78;5102708;28;20032;-65
2021/08/22 04:07:48;;;;;;;1.90;1.30;;;;;;;21.07;70.23;101620.78;5099249;28;20028;-65
2021/08/22 04:10:15;;;;;;;3.90;1.75;;;;;;;21.08;70.27;101621.59;5105527;28;20363;-65
2021/08/22 04:12:41;;;;;;;2.53;1.40;;;;;;;21.08;70.26;101622.41;5097890;28;20031;-65
2021/08/22 04:15:07;;;;;;;2.65;1.52;;;;;;;21.08;70.17;101625.09;5093985;28;20081;-65
2021/08/22 04:17:32;;;;;;;1.95;1.38;;;;;;;21.08;70.42;101629.59;5109222;28;20111;-65
2021/08/22 04:19:57;;;;;;;3.25;1.70;;;;;;;21.07;70.07;101628.78;5077361;28;20055;-64
2021/08/22 04:22:23;;;;;;;4.15;1.88;;;;;;;21.06;70.38;101634.31;5102825;28;20031;-64
2021/08/22 04:24:48;;;;;;;2.75;1.65;;;;;;;21.07;70.07;101639.44;5098670;28;20078;-65
2021/08/22 04:27:14;;;;;;;1.98;1.40;;;;;;;21.07;70.39;101638.63;5106059;28;20062;-65
2021/08/22 04:29:40;;;;;;;2.92;1.75;;;;;;;21.07;70.49;101642.13;5097302;28;20073;-65
2021/08/22 04:32:06;;;;;;;2.88;1.60;;;;;;;21.07;70.41;101638.63;5093969;28;20051;-65
2021/08/22 04:34:32;;;;;;;2.90;1.73;;;;;;;21.07;70.45;101644.78;5094635;28;20115;-65
2021/08/22 04:36:58;;;;;;;2.80;1.58;;;;;;;21.07;70.12;101647.44;5095357;28;20127;-65
2021/08/22 04:39:23;;;;;;;2.67;1.52;;;;;;;21.05;70.28;101644.16;5089037;28;20119;-65
2021/08/22 04:41:49;;;;;;;2.25;1.40;;;;;;;21.07;70.00;101649.28;5102088;28;20432;-65
2021/08/22 04:44:15;;;;;;;3.15;1.50;;;;;;;21.07;70.45;101649.28;5109020;28;20024;-65
2021/08/22 04:46:41;;;;;;;2.50;1.63;;;;;;;21.07;70.10;101654.63;5089160;28;20533;-64
2021/08/22 04:49:07;;;;;;;2.70;1.40;;;;;;;21.06;70.08;101652.97;5090619;28;20110;-65
2021/08/22 04:51:32;;;;;;;2.17;1.40;;;;;;;21.05;70.29;101648.66;5094309;28;20111;-65
2021/08/22 04:53:58;;;;;;;2.63;1.63;;;;;;;21.06;70.19;101652.97;5090415;28;20082;-65
2021/08/22 04:56:24;;;;;;;2.33;1.70;;;;;;;21.06;70.01;101650.31;5093656;28;20132;-65
2021/08/22 04:58:50;;;;;;;3.72;1.98;;;;;;;21.05;70.36;101656.66;5108450;28;20039;-65
2021/08/22 05:01:16;;;;;;;2.83;1.40;;;;;;;21.05;70.39;101662.00;5085640;28;20060;-65
2021/08/22 05:03:42;;;;;;;2.05;1.48;;;;;;;21.06;70.17;101660.97;5108116;28;20336;-65
2021/08/22 05:06:11;;;;;;;2.60;1.65;;;;;;;21.06;70.04;101666.31;5101535;28;20448;-65
2021/08/22 05:08:38;;;;;;;3.40;1.63;;;;;;;21.06;70.17;101668.97;5095103;28;20055;-65
2021/08/22 05:11:04;;;;;;;2.33;1.73;;;;;;;21.06;70.33;101674.31;5112351;28;20035;-65
2021/08/22 05:13:30;;;;;;;3.47;1.80;;;;;;;21.05;69.98;101670.00;5097443;28;20111;-65
2021/08/22 05:15:56;;;;;;;4.05;1.75;;;;;;;21.04;70.12;101671.84;5112185;28;20119;-65
2021/08/22 05:18:23;;;;;;;2.42;1.50;;;;;;;21.04;69.95;101682.50;5098445;28;20039;-65
2021/08/22 05:20:49;;;;;;;2.35;1.52;;;;;;;21.04;70.08;101687.00;5105985;28;20062;-65
2021/08/22 05:23:16;;;;;;;2.25;1.60;;;;;;;21.04;70.30;101687.84;5103717;28;20483;-65
2021/08/22 05:25:42;;;;;;;2.40;1.63;;;;;;;21.04;70.15;101685.16;5093560;28;20034;-65
2021/08/22 05:28:07;;;;;;;2.47;1.67;;;;;;;21.04;70.04;101698.50;5101638;28;20453;-65
2021/08/22 05:30:33;;;;;;;3.28;1.85;;;;;;;21.04;70.24;101705.69;5108223;28;20034;-65
2021/08/22 05:32:58;;;;;;;3.08;1.75;;;;;;;21.04;69.96;101700.34;5093786;28;20775;-65
2021/08/22 05:35:24;;;;;;;3.33;1.75;;;;;;;21.03;69.89;101707.53;5099206;28;20055;-64
2021/08/22 05:37:49;;;;;;;2.40;1.70;;;;;;;21.04;69.97;101713.69;5105563;28;20040;-65
2021/08/22 05:40:15;;;;;;;3.85;1.60;;;;;;;21.03;69.97;101712.03;5093664;28;20031;-65
2021/08/22 05:42:40;;;;;;;2.75;1.67;;;;;;;21.03;69.79;101718.19;5108133;28;20042;-65
2021/08/22 05:45:06;;;;;;;2.75;1.60;;;;;;;21.03;69.93;101722.72;5096995;28;20031;-65
2021/08/22 05:47:32;;;;;;;2.45;1.60;;;;;;;21.03;69.72;101722.72;5112056;28;20036;-65
2021/08/22 05:49:57;;;;;;;2.83;1.83;;;;;;;21.03;69.83;101725.38;5107314;28;20020;-65
2021/08/22 05:52:23;;;;;;;3.17;1.65;;;;;;;21.03;70.06;101733.38;5064164;28;20041;-65
2021/08/22 05:54:48;;;;;;;2.90;1.90;;;;;;;21.02;69.94;101732.56;5100334;28;20043;-65
2021/08/22 05:57:14;;;;;;;3.05;1.73;;;;;;;21.01;69.62;101741.56;5091596;28;20032;-65
2021/08/22 05:59:39;;;;;;;2.60;1.77;;;;;;;21.02;69.80;101740.56;5091130;28;20039;-65
2021/08/22 06:02:05;;;;;;;2.67;1.67;;;;;;;21.02;70.00;101748.56;5098318;28;20059;-65
2021/08/22 06:04:31;;;;;;;2.38;1.70;;;;;;;21.02;69.98;101745.06;5093197;28;20039;-65
2021/08/22 06:06:57;;;;;;;2.90;1.60;;;;;;;21.02;69.86;101745.06;5097000;28;20156;-65
2021/08/22 06:09:25;;;;;;;2.30;1.50;;;;;;;21.00;69.72;101742.59;5111119;28;20407;-65
2021/08/22 06:11:50;;;;;;;2.67;1.70;;;;;;;21.02;69.76;101745.06;5094927;28;20043;-65
2021/08/22 06:14:16;;;;;;;2.08;1.60;;;;;;;21.02;69.74;101750.41;5090401;28;20035;-65
2021/08/22 06:16:42;;;;;;;3.97;1.80;;;;;;;21.01;69.92;101746.06;5090926;28;20038;-65
2021/08/22 06:19:07;;;;;;;3.17;1.60;;;;;;;21.01;69.67;101746.06;5095413;28;20050;-65
2021/08/22 06:21:33;;;;;;;3.55;2.08;;;;;;;21.01;69.75;101762.09;5099347;28;20425;-65
2021/08/22 06:23:59;;;;;;;2.08;1.50;;;;;;;21.01;69.78;101764.75;5072155;28;20036;-65
2021/08/22 06:26:26;;;;;;;3.38;1.92;;;;;;;21.01;69.69;101768.25;5063114;28;20036;-65
2021/08/22 06:28:54;;;;;;;2.50;1.63;;;;;;;21.01;69.56;101770.09;5087736;28;20036;-65
2021/08/22 06:31:20;;;;;;;3.15;1.88;;;;;;;21.02;70.03;101774.41;5100764;28;20036;-65
2021/08/22 06:33:45;;;;;;;2.95;1.70;;;;;;;21.01;69.98;101773.59;5098820;28;20046;-65
2021/08/22 06:36:12;;;;;;;3.25;2.00;;;;;;;21.01;69.63;101778.09;5081460;28;20067;-65
2021/08/22 06:38:39;;;;;;;2.08;1.60;;;;;;;21.01;69.95;101780.75;5072253;28;20060;-65
2021/08/22 06:41:04;;;;;;;2.78;1.67;;;;;;;21.00;69.89;101787.09;5071816;28;20418;-65
2021/08/22 06:43:30;;;;;;;3.03;1.67;;;;;;;21.00;70.03;101787.94;5084050;28;20090;-65
2021/08/22 06:45:56;;;;;;;3.17;1.60;;;;;;;20.99;69.75;101793.41;5082726;28;20438;-65
2021/08/22 06:48:22;;;;;;;2.90;1.75;;;;;;;21.00;69.95;101803.09;5070853;28;20510;-65
2021/08/22 06:50:48;;;;;;;2.45;1.50;;;;;;;21.00;69.70;101806.59;5080584;28;20036;-65
2021/08/22 06:53:14;;;;;;;2.90;1.85;;;;;;;20.99;69.97;101802.28;5089310;28;20024;-64
2021/08/22 06:55:41;;;;;;;3.45;1.77;;;;;;;20.99;69.95;101807.63;5081126;28;20056;-65
2021/08/22 06:58:07;;;;;;;3.60;1.98;;;;;;;20.99;69.74;101812.09;5065440;28;20077;-65
2021/08/22 07:00:33;;;;;;;3.22;1.90;;;;;;;21.00;69.92;101811.09;5065669;28;20110;-65
2021/08/22 07:02:59;;;;;;;2.28;1.70;;;;;;;20.99;69.67;101814.75;5075006;28;20052;-65
2021/08/22 07:05:25;;;;;;;2.40;1.70;;;;;;;20.99;69.50;101817.44;5085190;28;20099;-65
2021/08/22 07:07:50;;;;;;;2.88;1.80;;;;;;;20.99;69.95;101825.44;5069380;28;20029;-65
2021/08/22 07:10:16;;;;;;;3.58;1.80;;;;;;;21.00;70.09;101825.28;5083037;28;20043;-65
2021/08/22 07:12:41;;;;;;;2.83;1.70;;;;;;;20.99;69.79;101825.44;5069486;28;20032;-65
2021/08/22 07:15:07;;;;;;;2.75;1.73;;;;;;;20.98;69.78;101821.94;5069125;28;20033;-65
2021/08/22 07:17:32;;;;;;;3.28;1.67;;;;;;;21.00;69.67;101821.78;5051967;28;20465;-65
2021/08/22 07:19:58;;;;;;;2.72;1.65;;;;;;;21.00;69.86;101829.78;5081530;28;20036;-65
2021/08/22 07:22:24;;;;;;;3.17;1.70;;;;;;;20.99;69.87;101831.63;5056886;28;20132;-65
2021/08/22 07:24:49;;;;;;;3.88;2.03;;;;;;;20.99;69.63;101836.97;5077423;28;20102;-65
2021/08/22 07:27:15;;;;;;;2.40;1.70;;;;;;;21.00;69.80;101848.47;5082570;28;20265;-65
2021/08/22 07:29:41;;;;;;;2.10;1.55;;;;;;;21.00;69.50;101835.13;5059796;28;20111;-65
2021/08/22 07:32:06;;;;;;;3.05;1.80;;;;;;;20.99;69.54;101846.78;5071943;28;20200;-65
2021/08/22 07:34:32;;;;;;;2.88;1.70;;;;;;;21.00;69.79;101840.44;5071010;28;20027;-65
2021/08/22 07:36:57;;;;;;;2.30;1.58;;;;;;;21.00;69.45;101848.47;5072197;28;20044;-65
2021/08/22 07:39:23;;;;;;;2.78;1.85;;;;;;;20.99;69.39;101844.97;5042597;28;20052;-65
2021/08/22 07:41:48;;;;;;;2.40;1.52;;;;;;;20.99;69.85;101858.28;5064603;28;20047;-65
2021/08/22 07:44:14;;;;;;;2.88;1.67;;;;;;;20.99;69.50;101863.63;5058256;28;20036;-65
2021/08/22 07:46:39;;;;;;;2.78;1.73;;;;;;;21.00;69.63;101869.78;5087098;28;20028;-65
2021/08/22 07:49:05;;;;;;;2.75;1.90;;;;;;;21.00;69.73;101872.47;5078123;28;20718;-65
2021/08/22 07:51:30;;;;;;;2.67;1.83;;;;;;;20.99;69.69;101868.09;5085220;28;20024;-65
2021/08/22 07:53:56;;;;;;;2.85;1.60;;;;;;;20.99;69.44;101871.63;5080564;28;20035;-65
2021/08/22 07:56:21;;;;;;;2.20;1.50;;;;;;;20.99;69.36;101874.31;5081836;28;20042;-69
2021/08/22 07:58:47;;;;;;;7.30;2.22;;;;;;;20.99;69.59;101881.44;5071215;28;20124;-65
2021/08/22 08:01:12;;;;;;;6.95;1.80;;;;;;;20.99;69.56;101884.13;5068846;28;20043;-65
2021/08/22 08:03:38;;;;;;;3.10;1.83;;;;;;;21.00;69.72;101880.47;5080435;28;20039;-65
2021/08/22 08:06:03;;;;;;;3.20;1.80;;;;;;;20.99;69.96;101881.44;5076263;28;20043;-65
2021/08/22 08:08:29;;;;;;;4.35;1.90;;;;;;;21.00;70.31;101891.97;5065276;28;20119;-66
2021/08/22 08:10:54;;;;;;;2.90;1.80;;;;;;;21.00;69.99;101889.31;5075876;28;20040;-65
2021/08/22 08:13:20;;;;;;;4.55;1.98;;;;;;;21.01;70.34;101896.28;5077056;28;20039;-65
2021/08/22 08:15:45;;;;;;;3.75;1.90;;;;;;;21.02;70.24;101899.78;5065506;28;20416;-65
2021/08/22 08:18:11;;;;;;;4.45;2.00;;;;;;;21.01;70.38;101896.28;5068898;28;20042;-67
2021/08/22 08:20:36;;;;;;;2.83;1.77;;;;;;;21.02;70.60;101895.28;5068012;28;20078;-63
2021/08/22 08:23:03;;;;;;;2.65;1.80;;;;;;;21.02;70.92;101900.63;5062399;28;20522;-66
2021/08/22 08:25:28;;;;;;;5.57;1.88;;;;;;;21.03;70.60;101901.44;5065781;28;20119;-66
2021/08/22 08:27:54;;;;;;;4.68;1.90;;;;;;;21.03;70.65;101904.94;5065356;28;20040;-66
2021/08/22 08:30:20;;;;;;;3.33;2.05;;;;;;;21.03;70.91;101910.28;5068293;28;20036;-65
2021/08/22 08:32:46;;;;;;;5.03;1.80;;;;;;;21.04;70.69;101908.44;5064183;28;20082;-66
2021/08/22 08:35:12;;;;;;;4.45;1.85;;;;;;;21.04;70.72;101909.25;5067573;28;20086;-67
2021/08/22 08:37:41;;;;;;;5.95;2.00;;;;;;;21.05;71.01;101913.59;5073435;28;20028;-67
2021/08/22 08:40:13;;;;;;;4.13;1.98;;;;;;;21.05;71.08;101918.91;5069473;28;20515;-66
2021/08/22 08:42:43;;;;;;;3.65;1.90;;;;;;;21.06;71.02;101922.41;5085337;28;20140;-65
2021/08/22 08:45:17;;;;;;;4.20;2.00;;;;;;;21.08;71.15;101925.72;5068493;28;20033;-65
2021/08/22 08:47:45;;;;;;;6.28;1.80;;;;;;;21.07;71.28;101927.56;5069160;28;20020;-66
2021/08/22 08:50:29;;;;;;;4.95;1.98;;;;;;;21.04;71.02;101930.59;5074880;28;20059;-71
2021/08/22 08:53:10;;;;;;;3.67;1.90;;;;;;;21.03;71.10;101925.44;5090199;28;20039;-66
2021/08/22 08:55:42;;;;;;;7.03;2.13;;;;;;;21.07;71.38;101934.75;5063791;28;20214;-68
2021/08/22 08:58:07;;;;;;;5.68;2.03;;;;;;;21.08;71.39;101945.25;5087325;28;20471;-67
2021/08/22 09:00:37;;;;;;;2.85;1.88;;;;;;;21.07;71.37;101938.25;5082977;28;20176;-66
2021/08/22 09:03:03;;;;;;;4.05;1.77;;;;;;;21.09;71.41;101941.56;5068478;28;20036;-66
2021/08/22 09:05:56;;;;;;;4.85;1.98;;;;;;;21.07;71.48;101943.59;5081954;28;20047;-67
2021/08/22 09:08:59;;;;;;;4.97;2.03;;;;;;;21.06;71.48;101938.44;5084793;28;20627;-67
2021/08/22 09:12:01;;;;;;;4.10;2.20;;;;;;;21.07;71.69;101940.91;5083755;28;20139;-66
2021/08/22 09:14:45;;;;;;;8.88;6.70;;;;;;;21.07;71.91;101945.41;5084922;28;20040;-67
2021/08/22 09:17:19;;;;;;;10.63;6.97;;;;;;;21.11;72.02;101941.38;5081984;28;20032;-67
2021/08/22 09:19:48;;;;;;;16.45;13.25;;;;;;;21.13;72.54;101952.69;5075351;28;20028;-66
2021/08/22 09:22:32;;;;;;;19.50;15.10;;;;;;;21.15;72.64;101953.38;5084567;28;20093;-67
2021/08/22 09:25:21;;;;;;;16.20;14.02;;;;;;;21.15;72.87;101953.38;5073724;28;20027;-67
2021/08/22 09:28:25;;;;;;;24.23;18.83;;;;;;;21.15;73.07;101962.22;5068242;28;20028;-67
2021/08/22 09:31:27;;;;;;;22.67;18.90;;;;;;;21.15;73.63;101954.19;5068700;28;20032;-65
2021/08/22 09:34:30;;;;;;;28.93;25.93;;;;;;;21.16;73.83;101953.19;5070006;28;20539;-67
2021/08/22 09:37:08;;;;;;;31.42;24.48;;;;;;;21.20;73.78;101964.34;5093763;28;20043;-66
2021/08/22 09:40:11;;;;;;;24.20;21.02;;;;;;;21.19;74.19;101968.84;5099635;28;20428;-67
2021/08/22 09:43:14;;;;;;;30.00;24.10;;;;;;;21.21;74.20;101971.31;5100964;28;20386;-64
2021/08/22 09:46:10;;;;;;;23.52;20.98;;;;;;;21.20;73.64;101970.50;5101394;28;20115;-64
2021/08/22 09:49:16;;;;;;;25.77;20.30;;;;;;;21.19;73.90;101979.50;5092433;28;20024;-68
2021/08/22 09:51:48;;;;;;;19.23;17.20;;;;;;;21.21;73.64;101979.34;5105497;28;20032;-64
2021/08/22 09:55:18;;;;;;;18.75;16.90;;;;;;;21.17;73.76;101981.53;5106147;28;20024;-64
2021/08/22 09:58:17;;;;;;;18.60;14.82;;;;;;;21.17;73.29;101978.03;4981697;28;20086;-66
2021/08/22 10:00:48;;;;;;;13.88;12.20;;;;;;;21.19;73.11;101984.03;5084487;28;20081;-66
2021/08/22 10:03:49;;;;;;;17.13;13.88;;;;;;;21.17;73.22;101988.72;5091656;28;20032;-66
2021/08/22 10:06:17;;;;;;;20.92;11.90;;;;;;;21.20;73.10;101991.84;5062024;28;20518;-64
2021/08/22 10:08:57;;;;;;;17.27;13.32;;;;;;;21.18;73.23;101985.84;5091121;28;20379;-65
2021/08/22 10:11:35;;;;;;;15.20;12.50;;;;;;;21.17;73.43;101996.72;5103210;28;20058;-65
2021/08/22 10:14:00;;;;;;;18.02;13.02;;;;;;;21.19;73.16;101992.03;5090711;28;20089;-65
2021/08/22 10:16:26;;;;;;;16.90;12.15;;;;;;;21.19;72.94;101989.34;5101153;28;20036;-66
2021/08/22 10:18:52;;;;;;;19.10;9.65;;;;;;;21.19;72.99;101992.84;5093100;28;20379;-65
2021/08/22 10:21:27;;;;;;;16.92;9.48;;;;;;;21.15;72.79;101991.56;5097454;28;20040;-66
2021/08/22 10:23:55;;;;;;;15.70;10.20;;;;;;;21.19;72.76;101994.69;5093903;28;20070;-65
2021/08/22 10:26:49;;;;;;;19.17;11.00;;;;;;;21.13;72.63;102000.72;5089791;28;20060;-65
2021/08/22 10:29:18;;;;;;;14.85;8.40;;;;;;;21.15;72.39;102004.06;5098103;28;20055;-67
2021/08/22 10:31:49;;;;;;;12.38;7.47;;;;;;;21.14;72.34;102005.88;5100233;28;20044;-67
2021/08/22 10:34:25;;;;;;;11.90;7.32;;;;;;;21.15;71.96;102006.75;5078085;28;20528;-67
2021/08/22 10:36:51;;;;;;;15.15;6.63;;;;;;;21.14;71.89;102007.72;5071886;28;20110;-67
2021/08/22 10:39:25;;;;;;;9.85;5.95;;;;;;;21.13;71.47;102003.38;5071741;28;20036;-67
2021/08/22 10:42:01;;;;;;;8.90;5.70;;;;;;;21.12;71.48;102007.06;5080261;28;20020;-67
2021/08/22 10:44:32;;;;;;;7.55;5.03;;;;;;;21.09;70.95;102007.44;5057900;28;20029;-67
2021/08/22 10:47:07;;;;;;;7.70;4.65;;;;;;;21.10;71.22;102011.75;5055893;28;20106;-67
2021/08/22 10:49:54;;;;;;;8.63;4.18;;;;;;;21.04;71.02;102015.16;5083308;28;20028;-67
2021/08/22 10:52:32;;;;;;;7.78;4.55;;;;;;;21.04;70.96;102015.16;5070145;28;20111;-67
2021/08/22 10:55:10;;;;;;;6.70;3.78;;;;;;;21.04;70.53;102017.81;5071919;28;20028;-67
2021/08/22 10:57:42;;;;;;;7.95;4.18;;;;;;;21.05;70.39;102014.13;5061857;28;20435;-67
2021/08/22 11:00:35;;;;;;;7.55;3.85;;;;;;;21.02;70.29;102017.16;5052617;28;20348;-67
2021/08/22 11:03:19;;;;;;;5.78;3.67;;;;;;;21.01;70.46;102013.66;5069683;28;20039;-67
2021/08/22 11:05:46;;;;;;;7.55;3.90;;;;;;;21.05;70.57;102014.13;5065291;28;20059;-67
2021/08/22 11:08:20;;;;;;;6.25;3.53;;;;;;;21.04;70.14;102025.81;5089806;28;20499;-67
2021/08/22 11:10:57;;;;;;;8.73;3.90;;;;;;;21.02;70.29;102031.34;5076586;28;20379;-67
2021/08/22 11:13:23;;;;;;;6.65;4.35;;;;;;;21.05;69.96;102025.63;5089433;28;20035;-67
2021/08/22 11:15:48;;;;;;;7.30;4.00;;;;;;;21.04;70.01;102025.81;5083634;28;20040;-66
2021/08/22 11:18:18;;;;;;;7.35;3.92;;;;;;;21.03;69.99;102029.50;5069272;28;20036;-67
2021/08/22 11:20:44;;;;;;;5.53;3.75;;;;;;;21.03;69.53;102027.66;5083251;28;20032;-67
2021/08/22 11:23:17;;;;;;;6.32;3.65;;;;;;;21.02;69.52;102031.34;5080585;28;20043;-67
2021/08/22 11:25:47;;;;;;;5.75;3.53;;;;;;;21.01;69.74;102034.19;5085102;28;20342;-67
2021/08/22 11:28:15;;;;;;;5.35;3.30;;;;;;;21.01;69.39;102039.50;5079993;28;20125;-67
2021/08/22 11:30:41;;;;;;;5.40;3.65;;;;;;;21.00;69.53;102037.84;5084105;28;20035;-67
2021/08/22 11:33:08;;;;;;;6.85;3.97;;;;;;;21.00;69.31;102032.53;5068805;28;20552;-67
2021/08/22 11:35:41;;;;;;;5.68;3.20;;;;;;;20.98;69.41;102035.34;5070748;28;20104;-67